This is the latest recevied weather packets stored in our database for station/object VE2JOS. If no packets are shown the sender has not sent any weather packets the latest 10 day(s).
| Time | Temp. | Humidity | Pressure | Rain* | Wind** | Luminosity | Snow |
|---|---|---|---|---|---|---|---|
| 1777449936 | 14.44° C | 55% | - | 0 mm | - | - | - |
| 1777447535 | 15° C | 54% | - | 0 mm | - | - | - |
| 1777445135 | 16.11° C | 51% | - | 0 mm | - | - | - |
| 1777443335 | 16.11° C | 50% | - | 0 mm | - | - | - |
| 1777442135 | 16.67° C | 50% | - | 0 mm | - | - | - |
| 1777440935 | 16.67° C | 49% | - | 0 mm | - | - | - |
| 1777437335 | 17.78° C | 48% | - | 0 mm | - | - | - |
| 1777435535 | 18.33° C | 46% | - | 0 mm | - | - | - |
| 1777433735 | 18.33° C | 45% | - | 0 mm | - | - | - |
| 1777433135 | 18.33° C | 45% | - | 0 mm | - | - | - |
| 1777430735 | 18.89° C | 41% | - | 0 mm | - | - | - |
| 1777427735 | 20° C | 36% | - | 0 mm | - | - | - |
| 1777425935 | 20° C | 36% | - | 0 mm | - | - | - |
| 1777425335 | 20° C | 37% | - | 0 mm | - | - | - |
| 1777424735 | 20° C | 37% | - | 0 mm | - | - | - |
| 1777423555 | 21.11° C | 35% | - | 0 mm | - | - | - |
| 1777421155 | 21.67° C | 35% | - | 0 mm | - | - | - |
| 1777412735 | 23.33° C | 34% | - | 0 mm | - | - | - |
| 1777405535 | 24.44° C | 30% | - | 0 mm | - | - | - |
| 1777392335 | 23.89° C | 33% | - | 0 mm | - | - | - |
| 1777389936 | 19.44° C | 52% | - | 0 mm | - | - | - |
| 1777385135 | 16.11° C | 61% | - | 0 mm | - | - | - |
| 1777382755 | 15.56° C | 62% | - | 0 mm | - | - | - |
| 1777382135 | 15° C | 62% | - | 0 mm | - | - | - |
| 1777381535 | 14.44° C | 64% | - | 0 mm | - | - | - |
* Rain latest hour (hover to see other rain measurements)
** Current wind speed in m/s (hover to see current wind gust speed)